createdAt,value
2019-02-15T00:01:09.000Z,102080
2019-02-15T00:03:09.000Z,102085
2019-02-15T00:04:09.000Z,102089
2019-02-15T00:06:09.000Z,102086
2019-02-15T00:08:09.000Z,102086
2019-02-15T00:10:09.000Z,102084
2019-02-15T00:11:09.000Z,102087
2019-02-15T00:13:09.000Z,102083
2019-02-15T00:15:09.000Z,102085
2019-02-15T00:17:09.000Z,102085
2019-02-15T00:19:09.000Z,102085
2019-02-15T00:20:09.000Z,102080
2019-02-15T00:21:09.000Z,102080
2019-02-15T00:22:54.000Z,102081
2019-02-15T00:24:09.000Z,102077
2019-02-15T00:26:09.000Z,102075
2019-02-15T00:27:09.000Z,102072
2019-02-15T00:29:09.000Z,102076
2019-02-15T00:31:09.000Z,102073
2019-02-15T00:32:09.000Z,102071
2019-02-15T00:34:09.000Z,102070
2019-02-15T00:36:09.000Z,102077
2019-02-15T00:37:09.000Z,102071
2019-02-15T00:38:54.000Z,102075
2019-02-15T00:40:09.000Z,102071
2019-02-15T00:41:09.000Z,102069
2019-02-15T00:43:09.000Z,102076
2019-02-15T00:45:09.000Z,102068
2019-02-15T00:47:09.000Z,102073
2019-02-15T00:49:09.000Z,102071
2019-02-15T00:51:09.000Z,102068
2019-02-15T00:52:09.000Z,102068
2019-02-15T00:53:09.000Z,102071
2019-02-15T00:55:09.000Z,102071
2019-02-15T00:56:39.000Z,102071
2019-02-15T00:58:09.000Z,102074
2019-02-15T01:00:09.000Z,102071
2019-02-15T01:01:09.000Z,102072
2019-02-15T01:03:09.000Z,102069
2019-02-15T01:05:09.000Z,102063
2019-02-15T01:07:09.000Z,102069
2019-02-15T01:09:09.000Z,102068
2019-02-15T01:11:09.000Z,102068
2019-02-15T01:12:09.000Z,102067
2019-02-15T01:13:09.000Z,102065
2019-02-15T01:15:09.000Z,102063
2019-02-15T01:16:09.000Z,102060
2019-02-15T01:18:09.000Z,102058
2019-02-15T01:19:09.000Z,102063
2019-02-15T01:21:09.000Z,102059
2019-02-15T01:23:09.000Z,102059
2019-02-15T01:24:09.000Z,102053
2019-02-15T01:26:09.000Z,102050
2019-02-15T01:28:09.000Z,102058
2019-02-15T01:29:09.000Z,102056
2019-02-15T01:31:09.000Z,102059
2019-02-15T01:33:09.000Z,102055
2019-02-15T01:34:09.000Z,102054
2019-02-15T01:35:09.000Z,102052
2019-02-15T01:37:09.000Z,102049
2019-02-15T01:38:09.000Z,102047
2019-02-15T01:40:09.000Z,102040
2019-02-15T01:41:54.000Z,102038
2019-02-15T01:43:09.000Z,102042
2019-02-15T01:45:09.000Z,102033
2019-02-15T01:47:09.000Z,102041
2019-02-15T01:49:09.000Z,102042
2019-02-15T01:50:09.000Z,102039
2019-02-15T01:51:54.000Z,102036
2019-02-15T01:53:09.000Z,102034
2019-02-15T01:54:09.000Z,102035
2019-02-15T01:55:09.000Z,102031
2019-02-15T01:57:09.000Z,102025
2019-02-15T01:59:09.000Z,102028
2019-02-15T02:01:09.000Z,102023
2019-02-15T02:02:54.000Z,102017
2019-02-15T02:04:09.000Z,102018
2019-02-15T02:05:54.000Z,102018
2019-02-15T02:07:09.000Z,102016
2019-02-15T02:08:39.000Z,102016
2019-02-15T02:10:09.000Z,102023
2019-02-15T02:12:09.000Z,102017
2019-02-15T02:13:09.000Z,102017
2019-02-15T02:15:09.000Z,102018
2019-02-15T02:16:09.000Z,102018
2019-02-15T02:17:09.000Z,102018
2019-02-15T02:19:09.000Z,102015
2019-02-15T02:21:09.000Z,102005
2019-02-15T02:22:09.000Z,102010
2019-02-15T02:23:09.000Z,102012
2019-02-15T02:25:09.000Z,102007
2019-02-15T02:27:09.000Z,102009
2019-02-15T02:28:09.000Z,102006
2019-02-15T02:29:09.000Z,102005
2019-02-15T02:30:09.000Z,102003
2019-02-15T02:32:09.000Z,102005
2019-02-15T02:34:09.000Z,102003
2019-02-15T02:36:09.000Z,101998
2019-02-15T02:37:54.000Z,102003
2019-02-15T02:39:09.000Z,102000
2019-02-15T02:40:09.000Z,101998
2019-02-15T02:42:09.000Z,102000
2019-02-15T02:43:54.000Z,101998
2019-02-15T02:46:09.000Z,101995
2019-02-15T02:47:09.000Z,101994
2019-02-15T02:49:09.000Z,101996
2019-02-15T02:51:09.000Z,101991
2019-02-15T02:52:09.000Z,101995
2019-02-15T02:53:09.000Z,101994
2019-02-15T02:55:09.000Z,101996
2019-02-15T02:57:09.000Z,101992
2019-02-15T02:59:09.000Z,101994
2019-02-15T03:01:09.000Z,101988
2019-02-15T03:02:09.000Z,101989
2019-02-15T03:03:54.000Z,101988
2019-02-15T03:04:54.000Z,101988
2019-02-15T03:07:09.000Z,101979
2019-02-15T03:08:09.000Z,101986
2019-02-15T03:09:54.000Z,101980
2019-02-15T03:11:09.000Z,101981
2019-02-15T03:13:09.000Z,101976
2019-02-15T03:15:09.000Z,101975
2019-02-15T03:16:09.000Z,101973
2019-02-15T03:18:09.000Z,101977
2019-02-15T03:19:09.000Z,101980
2019-02-15T03:21:09.000Z,101979
2019-02-15T03:23:09.000Z,101972
2019-02-15T03:24:09.000Z,101976
2019-02-15T03:26:09.000Z,101970
2019-02-15T03:28:09.000Z,101965
2019-02-15T03:30:09.000Z,101970
2019-02-15T03:31:09.000Z,101965
2019-02-15T03:33:09.000Z,101964
2019-02-15T03:34:09.000Z,101963
2019-02-15T03:36:09.000Z,101967
2019-02-15T03:37:09.000Z,101958
2019-02-15T03:38:54.000Z,101958
2019-02-15T03:40:09.000Z,101961
2019-02-15T03:42:09.000Z,101958
2019-02-15T03:44:09.000Z,101954
2019-02-15T03:45:09.000Z,101955
2019-02-15T03:47:09.000Z,101950
2019-02-15T03:49:09.000Z,101955
2019-02-15T03:51:09.000Z,101953
2019-02-15T03:53:09.000Z,101948
2019-02-15T03:54:09.000Z,101953
2019-02-15T03:56:09.000Z,101949
2019-02-15T03:58:09.000Z,101948
2019-02-15T03:59:53.000Z,101954
2019-02-15T04:01:09.000Z,101952
2019-02-15T04:03:09.000Z,101954
2019-02-15T04:04:09.000Z,101951
2019-02-15T04:05:53.000Z,101953
2019-02-15T04:07:09.000Z,101949
2019-02-15T04:08:09.000Z,101946
2019-02-15T04:09:09.000Z,101949
2019-02-15T04:10:09.000Z,101945
2019-02-15T04:12:09.000Z,101948
2019-02-15T04:14:09.000Z,101946
2019-02-15T04:15:09.000Z,101951
2019-02-15T04:16:53.000Z,101952
2019-02-15T04:18:09.000Z,101953
2019-02-15T04:19:09.000Z,101947
2019-02-15T04:21:09.000Z,101946
2019-02-15T04:23:09.000Z,101945
2019-02-15T04:24:38.000Z,101946
2019-02-15T04:26:09.000Z,101943
2019-02-15T04:27:09.000Z,101945
2019-02-15T04:28:53.000Z,101951
2019-02-15T04:30:09.000Z,101950
2019-02-15T04:31:09.000Z,101947
2019-02-15T04:33:09.000Z,101943
2019-02-15T04:34:53.000Z,101946
2019-02-15T04:36:09.000Z,101945
2019-02-15T04:38:09.000Z,101954
2019-02-15T04:39:53.000Z,101959
2019-02-15T04:41:09.000Z,101955
2019-02-15T04:42:09.000Z,101958
2019-02-15T04:44:09.000Z,101947
2019-02-15T04:46:09.000Z,101951
2019-02-15T04:47:09.000Z,101951
2019-02-15T04:49:09.000Z,101957
2019-02-15T04:50:09.000Z,101956
2019-02-15T04:51:53.000Z,101950
2019-02-15T04:53:09.000Z,101947
2019-02-15T04:55:09.000Z,101954
2019-02-15T04:57:09.000Z,101946
2019-02-15T04:59:09.000Z,101954
2019-02-15T05:01:09.000Z,101958
2019-02-15T05:03:09.000Z,101958
2019-02-15T05:05:09.000Z,101957
2019-02-15T05:06:09.000Z,101955
2019-02-15T05:07:39.000Z,101952
2019-02-15T05:09:09.000Z,101952
2019-02-15T05:10:54.000Z,101946
2019-02-15T05:12:09.000Z,101951
2019-02-15T05:13:54.000Z,101955
2019-02-15T05:15:09.000Z,101952
2019-02-15T05:17:09.000Z,101962
2019-02-15T05:19:09.000Z,101961
2019-02-15T05:20:09.000Z,101957
2019-02-15T05:22:09.000Z,101954
2019-02-15T05:24:09.000Z,101954
2019-02-15T05:25:54.000Z,101957
2019-02-15T05:27:09.000Z,101958
2019-02-15T05:28:09.000Z,101955
2019-02-15T05:30:09.000Z,101954
2019-02-15T05:31:09.000Z,101957
2019-02-15T05:33:09.000Z,101957
2019-02-15T05:35:09.000Z,101960
2019-02-15T05:37:09.000Z,101960
2019-02-15T05:38:09.000Z,101959
2019-02-15T05:40:09.000Z,101955
2019-02-15T05:41:09.000Z,101957
2019-02-15T05:42:54.000Z,101961
2019-02-15T05:44:09.000Z,101957
2019-02-15T05:46:09.000Z,101956
2019-02-15T05:47:09.000Z,101956
2019-02-15T05:49:09.000Z,101947
2019-02-15T05:51:09.000Z,101947
2019-02-15T05:53:09.000Z,101942
2019-02-15T05:54:09.000Z,101948
2019-02-15T05:56:09.000Z,101952
2019-02-15T05:57:09.000Z,101954
2019-02-15T05:58:09.000Z,101954
2019-02-15T06:00:09.000Z,101954
2019-02-15T06:02:09.000Z,101954
2019-02-15T06:03:09.000Z,101953
2019-02-15T06:04:09.000Z,101954
2019-02-15T06:05:54.000Z,101950
2019-02-15T06:07:09.000Z,101957
2019-02-15T06:09:09.000Z,101958
2019-02-15T06:10:54.000Z,101961
2019-02-15T06:13:09.000Z,101962
2019-02-15T06:14:54.000Z,101968
2019-02-15T06:16:09.000Z,101964
2019-02-15T06:17:39.000Z,101961
2019-02-15T06:19:09.000Z,101960
2019-02-15T06:20:54.000Z,101957
2019-02-15T06:22:09.000Z,101955
2019-02-15T06:23:54.000Z,101956
2019-02-15T06:25:54.000Z,101958
2019-02-15T06:27:54.000Z,101961
2019-02-15T06:29:09.000Z,101955
2019-02-15T06:30:54.000Z,101955
2019-02-15T06:32:09.000Z,101954
2019-02-15T06:34:09.000Z,101956
2019-02-15T06:36:09.000Z,101954
2019-02-15T06:38:09.000Z,101950
2019-02-15T06:39:09.000Z,101946
2019-02-15T06:40:09.000Z,101950
2019-02-15T06:42:09.000Z,101950
2019-02-15T06:43:09.000Z,101957
2019-02-15T06:44:54.000Z,101954
2019-02-15T06:46:09.000Z,101955
2019-02-15T06:48:09.000Z,101953
2019-02-15T06:49:54.000Z,101955
2019-02-15T06:51:09.000Z,101960
2019-02-15T06:52:09.000Z,101955
2019-02-15T06:54:09.000Z,101955
2019-02-15T06:55:54.000Z,101952
2019-02-15T06:57:09.000Z,101958
2019-02-15T06:58:09.000Z,101951
2019-02-15T07:00:09.000Z,101958
2019-02-15T07:02:09.000Z,101960
2019-02-15T07:03:09.000Z,101958
2019-02-15T07:05:09.000Z,101959
2019-02-15T07:07:09.000Z,101962
2019-02-15T07:08:09.000Z,101965
2019-02-15T07:09:09.000Z,101960
2019-02-15T07:11:09.000Z,101962
2019-02-15T07:13:09.000Z,101960
2019-02-15T07:14:09.000Z,101962
2019-02-15T07:16:09.000Z,101962
2019-02-15T07:18:09.000Z,101961
2019-02-15T07:20:09.000Z,101961
2019-02-15T07:22:09.000Z,101959
2019-02-15T07:23:54.000Z,101961
2019-02-15T07:25:09.000Z,101963
2019-02-15T07:27:09.000Z,101957
2019-02-15T07:29:09.000Z,101962
2019-02-15T07:30:54.000Z,101964
2019-02-15T07:32:09.000Z,101967
2019-02-15T07:34:09.000Z,101956
2019-02-15T07:36:09.000Z,101956
2019-02-15T07:38:09.000Z,101957
2019-02-15T07:40:09.000Z,101962
2019-02-15T07:41:54.000Z,101962
2019-02-15T07:43:09.000Z,101961
2019-02-15T07:44:09.000Z,101962
2019-02-15T07:45:09.000Z,101956
2019-02-15T07:46:54.000Z,101957
2019-02-15T07:48:09.000Z,101960
2019-02-15T07:49:09.000Z,101959
2019-02-15T07:50:39.000Z,101958
2019-02-15T07:52:09.000Z,101954
2019-02-15T07:54:09.000Z,101960
2019-02-15T07:55:54.000Z,101955
2019-02-15T07:57:09.000Z,101955
2019-02-15T07:59:09.000Z,101956
2019-02-15T08:01:09.000Z,101956
2019-02-15T08:02:54.000Z,101958
2019-02-15T08:04:09.000Z,101961
2019-02-15T08:05:09.000Z,101960
2019-02-15T08:06:09.000Z,101956
2019-02-15T08:08:09.000Z,101952
2019-02-15T08:10:09.000Z,101948
2019-02-15T08:11:09.000Z,101946
2019-02-15T08:12:54.000Z,101948
2019-02-15T08:14:09.000Z,101950
2019-02-15T08:16:09.000Z,101951
2019-02-15T08:17:54.000Z,101949
2019-02-15T08:19:09.000Z,101944
2019-02-15T08:21:09.000Z,101943
2019-02-15T08:23:09.000Z,101945
2019-02-15T08:25:09.000Z,101946
2019-02-15T08:27:09.000Z,101945
2019-02-15T08:29:09.000Z,101939
2019-02-15T08:30:54.000Z,101943
2019-02-15T08:32:09.000Z,101943
2019-02-15T08:33:09.000Z,101945
2019-02-15T08:35:09.000Z,101944
2019-02-15T08:37:09.000Z,101942
2019-02-15T08:39:09.000Z,101940
2019-02-15T08:41:09.000Z,101940
2019-02-15T08:42:54.000Z,101938
2019-02-15T08:44:09.000Z,101940
2019-02-15T08:45:09.000Z,101936
2019-02-15T08:47:09.000Z,101934
2019-02-15T08:48:46.000Z,101935
2019-02-15T08:50:09.000Z,101939
2019-02-15T08:51:39.000Z,101934
2019-02-15T08:52:54.000Z,101934
2019-02-15T08:55:09.000Z,101934
2019-02-15T08:57:09.000Z,101938
2019-02-15T08:58:09.000Z,101938
2019-02-15T09:00:09.000Z,101941
2019-02-15T09:01:54.000Z,101936
2019-02-15T09:03:09.000Z,101934
2019-02-15T09:05:09.000Z,101934
2019-02-15T09:06:09.000Z,101934
2019-02-15T09:07:39.000Z,101924
2019-02-15T09:09:09.000Z,101924
2019-02-15T09:11:09.000Z,101922
2019-02-15T09:12:09.000Z,101925
2019-02-15T09:14:09.000Z,101920
2019-02-15T09:15:09.000Z,101916
2019-02-15T09:16:09.000Z,101918
2019-02-15T09:18:09.000Z,101916
2019-02-15T09:19:09.000Z,101913
2019-02-15T09:20:09.000Z,101913
2019-02-15T09:22:09.000Z,101916
2019-02-15T09:23:09.000Z,101916
2019-02-15T09:24:54.000Z,101910
2019-02-15T09:26:09.000Z,101916
2019-02-15T09:28:09.000Z,101919
2019-02-15T09:29:09.000Z,101912
2019-02-15T09:30:54.000Z,101908
2019-02-15T09:32:09.000Z,101912
2019-02-15T09:33:09.000Z,101911
2019-02-15T09:35:09.000Z,101912
2019-02-15T09:36:09.000Z,101910
2019-02-15T09:38:09.000Z,101907
2019-02-15T09:39:09.000Z,101906
2019-02-15T09:40:54.000Z,101908
2019-02-15T09:42:09.000Z,101911
2019-02-15T09:43:09.000Z,101904
2019-02-15T09:45:09.000Z,101897
2019-02-15T09:46:09.000Z,101901
2019-02-15T09:48:09.000Z,101898
2019-02-15T09:50:09.000Z,101905
2019-02-15T09:51:54.000Z,101903
2019-02-15T09:53:09.000Z,101904
2019-02-15T09:54:09.000Z,101899
2019-02-15T09:56:09.000Z,101900
2019-02-15T09:57:09.000Z,101908
2019-02-15T09:59:09.000Z,101917
2019-02-15T10:00:09.000Z,101912
2019-02-15T10:02:09.000Z,101902
2019-02-15T10:03:39.000Z,101904
2019-02-15T10:05:09.000Z,101908
2019-02-15T10:07:09.000Z,101906
2019-02-15T10:09:09.000Z,101905
2019-02-15T10:11:09.000Z,101903
2019-02-15T10:12:09.000Z,101904
2019-02-15T10:14:09.000Z,101904
2019-02-15T10:15:54.000Z,101904
2019-02-15T10:17:09.000Z,101897
2019-02-15T10:19:09.000Z,101899
2019-02-15T10:20:54.000Z,101906
2019-02-15T10:22:09.000Z,101902
2019-02-15T10:24:09.000Z,101904
2019-02-15T10:26:09.000Z,101900
2019-02-15T10:27:54.000Z,101903
2019-02-15T10:29:09.000Z,101902
2019-02-15T10:30:09.000Z,101895
2019-02-15T10:32:09.000Z,101904
2019-02-15T10:33:09.000Z,101898
2019-02-15T10:35:09.000Z,101901
2019-02-15T10:37:09.000Z,101896
2019-02-15T10:39:09.000Z,101896
2019-02-15T10:40:09.000Z,101894
2019-02-15T10:41:09.000Z,101900
2019-02-15T10:43:09.000Z,101893
2019-02-15T10:45:09.000Z,101900
2019-02-15T10:47:09.000Z,101894
2019-02-15T10:49:09.000Z,101885
2019-02-15T10:50:54.000Z,101886
2019-02-15T10:53:09.000Z,101889
2019-02-15T10:55:09.000Z,101883
2019-02-15T10:56:54.000Z,101886
2019-02-15T10:58:09.000Z,101885
2019-02-15T11:00:09.000Z,101883
2019-02-15T11:02:09.000Z,101888
2019-02-15T11:04:09.000Z,101886
2019-02-15T11:06:09.000Z,101875
2019-02-15T11:07:09.000Z,101877
2019-02-15T11:09:09.000Z,101877
2019-02-15T11:10:54.000Z,101876
2019-02-15T11:12:09.000Z,101870
2019-02-15T11:13:09.000Z,101875
2019-02-15T11:14:54.000Z,101880
2019-02-15T11:16:09.000Z,101875
2019-02-15T11:18:09.000Z,101870
2019-02-15T11:20:09.000Z,101862
2019-02-15T11:21:54.000Z,101869
2019-02-15T11:23:09.000Z,101876
2019-02-15T11:25:09.000Z,101863
2019-02-15T11:26:09.000Z,101863
2019-02-15T11:27:54.000Z,101866
2019-02-15T11:29:09.000Z,101864
2019-02-15T11:30:09.000Z,101864
2019-02-15T11:32:09.000Z,101862
2019-02-15T11:33:09.000Z,101860
2019-02-15T11:34:09.000Z,101866
2019-02-15T11:36:09.000Z,101856
2019-02-15T11:37:09.000Z,101857
2019-02-15T11:39:09.000Z,101846
2019-02-15T11:40:54.000Z,101841
2019-02-15T11:42:09.000Z,101834
2019-02-15T11:44:09.000Z,101836
2019-02-15T11:46:09.000Z,101842
2019-02-15T11:47:54.000Z,101847
2019-02-15T11:49:09.000Z,101847
2019-02-15T11:50:54.000Z,101843
2019-02-15T11:52:09.000Z,101841
2019-02-15T11:54:09.000Z,101837
2019-02-15T11:56:09.000Z,101833
2019-02-15T11:58:09.000Z,101845
2019-02-15T11:59:10.000Z,101831
2019-02-15T12:01:09.000Z,101841
2019-02-15T12:02:09.000Z,101830
2019-02-15T12:04:09.000Z,101830
2019-02-15T12:05:09.000Z,101831
2019-02-15T12:06:09.000Z,101829
2019-02-15T12:08:09.000Z,101822
2019-02-15T12:10:09.000Z,101824
2019-02-15T12:11:10.000Z,101819
2019-02-15T12:12:54.000Z,101819
2019-02-15T12:14:10.000Z,101818
2019-02-15T12:15:54.000Z,101809
2019-02-15T12:17:09.000Z,101812
2019-02-15T12:19:09.000Z,101812
2019-02-15T12:20:09.000Z,101810
2019-02-15T12:21:09.000Z,101806
2019-02-15T12:23:09.000Z,101807
2019-02-15T12:24:09.000Z,101809
2019-02-15T12:26:09.000Z,101806
2019-02-15T12:28:09.000Z,101804
2019-02-15T12:29:09.000Z,101807
2019-02-15T12:30:09.000Z,101803
2019-02-15T12:32:09.000Z,101796
2019-02-15T12:34:09.000Z,101801
2019-02-15T12:35:09.000Z,101797
2019-02-15T12:37:09.000Z,101798
2019-02-15T12:39:09.000Z,101791
2019-02-15T12:41:09.000Z,101790
2019-02-15T12:43:09.000Z,101787
2019-02-15T12:44:09.000Z,101781
2019-02-15T12:46:09.000Z,101775
2019-02-15T12:47:09.000Z,101775
2019-02-15T12:49:09.000Z,101776
2019-02-15T12:50:54.000Z,101774
2019-02-15T12:52:09.000Z,101766
2019-02-15T12:54:09.000Z,101767
2019-02-15T12:56:09.000Z,101765
2019-02-15T12:58:09.000Z,101759
2019-02-15T12:59:54.000Z,101759
2019-02-15T13:01:09.000Z,101756
2019-02-15T13:02:09.000Z,101752
2019-02-15T13:03:09.000Z,101752
2019-02-15T13:05:09.000Z,101750
2019-02-15T13:06:09.000Z,101749
2019-02-15T13:08:09.000Z,101741
2019-02-15T13:10:09.000Z,101741
2019-02-15T13:12:09.000Z,101738
2019-02-15T13:13:09.000Z,101735
2019-02-15T13:14:09.000Z,101743
2019-02-15T13:15:09.000Z,101737
2019-02-15T13:17:09.000Z,101740
2019-02-15T13:18:54.000Z,101736
2019-02-15T13:21:09.000Z,101733
2019-02-15T13:23:09.000Z,101733
2019-02-15T13:24:54.000Z,101730
2019-02-15T13:27:09.000Z,101730
2019-02-15T13:29:09.000Z,101728
2019-02-15T13:31:09.000Z,101721
2019-02-15T13:32:09.000Z,101717
2019-02-15T13:33:54.000Z,101719
2019-02-15T13:35:09.000Z,101713
2019-02-15T13:36:09.000Z,101711
2019-02-15T13:38:09.000Z,101709
2019-02-15T13:39:09.000Z,101709
2019-02-15T13:41:09.000Z,101706
2019-02-15T13:42:39.000Z,101706
2019-02-15T13:44:09.000Z,101704
2019-02-15T13:46:09.000Z,101699
2019-02-15T13:48:09.000Z,101696
2019-02-15T13:50:09.000Z,101690
2019-02-15T13:52:09.000Z,101693
2019-02-15T13:54:09.000Z,101690
2019-02-15T13:55:09.000Z,101684
2019-02-15T13:56:39.000Z,101685
2019-02-15T13:58:09.000Z,101685
2019-02-15T13:59:09.000Z,101680
2019-02-15T14:01:09.000Z,101679
2019-02-15T14:03:09.000Z,101678
2019-02-15T14:05:09.000Z,101672
2019-02-15T14:06:09.000Z,101670
2019-02-15T14:07:09.000Z,101668
2019-02-15T14:09:09.000Z,101674
2019-02-15T14:11:09.000Z,101675
2019-02-15T14:13:09.000Z,101667
2019-02-15T14:15:09.000Z,101660
2019-02-15T14:17:09.000Z,101659
2019-02-15T14:19:09.000Z,101659
2019-02-15T14:20:09.000Z,101662
2019-02-15T14:21:09.000Z,101651
2019-02-15T14:23:09.000Z,101647
2019-02-15T14:24:09.000Z,101649
2019-02-15T14:26:09.000Z,101649
2019-02-15T14:27:09.000Z,101644
2019-02-15T14:28:09.000Z,101646
2019-02-15T14:29:54.000Z,101639
2019-02-15T14:32:09.000Z,101641
2019-02-15T14:33:09.000Z,101636
2019-02-15T14:35:09.000Z,101637
2019-02-15T14:36:09.000Z,101635
2019-02-15T14:37:38.000Z,101634
2019-02-15T14:39:09.000Z,101637
2019-02-15T14:40:09.000Z,101643
2019-02-15T14:42:09.000Z,101633
2019-02-15T14:43:09.000Z,101632
2019-02-15T14:45:09.000Z,101633
2019-02-15T14:47:09.000Z,101628
2019-02-15T14:49:09.000Z,101630
2019-02-15T14:51:09.000Z,101634
2019-02-15T14:53:09.000Z,101630
2019-02-15T14:54:54.000Z,101622
2019-02-15T14:56:09.000Z,101630
2019-02-15T14:58:09.000Z,101625
2019-02-15T14:59:54.000Z,101626
2019-02-15T15:01:09.000Z,101624
2019-02-15T15:02:09.000Z,101612
2019-02-15T15:03:09.000Z,101614
2019-02-15T15:04:39.000Z,101622
2019-02-15T15:05:54.000Z,101614
2019-02-15T15:07:09.000Z,101610
2019-02-15T15:09:09.000Z,101607
2019-02-15T15:10:54.000Z,101610
2019-02-15T15:13:09.000Z,101604
2019-02-15T15:15:09.000Z,101602
2019-02-15T15:17:09.000Z,101611
2019-02-15T15:18:54.000Z,101611
2019-02-15T15:20:09.000Z,101605
2019-02-15T15:21:09.000Z,101593
2019-02-15T15:22:54.000Z,101597
2019-02-15T15:24:09.000Z,101593
2019-02-15T15:26:09.000Z,101592
2019-02-15T15:28:09.000Z,101594
2019-02-15T15:30:09.000Z,101592
2019-02-15T15:32:09.000Z,101582
2019-02-15T15:34:09.000Z,101589
2019-02-15T15:35:09.000Z,101582
2019-02-15T15:36:39.000Z,101581
2019-02-15T15:38:09.000Z,101582
2019-02-15T15:40:09.000Z,101588
2019-02-15T15:42:09.000Z,101587
2019-02-15T15:43:39.000Z,101583
2019-02-15T15:45:09.000Z,101582
2019-02-15T15:47:09.000Z,101581
2019-02-15T15:49:09.000Z,101581
2019-02-15T15:50:09.000Z,101582
2019-02-15T15:52:09.000Z,101579
2019-02-15T15:53:09.000Z,101575
2019-02-15T15:55:09.000Z,101581
2019-02-15T15:56:09.000Z,101583
2019-02-15T15:57:09.000Z,101584
2019-02-15T15:59:09.000Z,101579
2019-02-15T16:00:09.000Z,101577
2019-02-15T16:01:09.000Z,101581
2019-02-15T16:02:54.000Z,101570
2019-02-15T16:04:09.000Z,101578
2019-02-15T16:05:39.000Z,101569
2019-02-15T16:07:09.000Z,101570
2019-02-15T16:08:54.000Z,101565
2019-02-15T16:09:54.000Z,101566
2019-02-15T16:11:09.000Z,101570
2019-02-15T16:13:09.000Z,101562
2019-02-15T16:15:09.000Z,101563
2019-02-15T16:17:09.000Z,101564
2019-02-15T16:19:09.000Z,101558
2019-02-15T16:21:09.000Z,101569
2019-02-15T16:22:09.000Z,101562
2019-02-15T16:23:09.000Z,101560
2019-02-15T16:25:09.000Z,101548
2019-02-15T16:27:09.000Z,101557
2019-02-15T16:28:09.000Z,101552
2019-02-15T16:29:09.000Z,101553
2019-02-15T16:31:09.000Z,101552
2019-02-15T16:33:09.000Z,101549
2019-02-15T16:34:54.000Z,101554
2019-02-15T16:36:09.000Z,101556
2019-02-15T16:38:09.000Z,101552
2019-02-15T16:40:09.000Z,101550
2019-02-15T16:41:54.000Z,101550
2019-02-15T16:43:09.000Z,101552
2019-02-15T16:44:09.000Z,101552
2019-02-15T16:46:09.000Z,101550
2019-02-15T16:47:09.000Z,101553
2019-02-15T16:48:39.000Z,101556
2019-02-15T16:49:54.000Z,101554
2019-02-15T16:51:09.000Z,101554
2019-02-15T16:53:09.000Z,101555
2019-02-15T16:55:09.000Z,101558
2019-02-15T16:56:54.000Z,101556
2019-02-15T16:58:09.000Z,101556
2019-02-15T17:00:09.000Z,101562
2019-02-15T17:01:09.000Z,101554
2019-02-15T17:03:09.000Z,101560
2019-02-15T17:04:09.000Z,101555
2019-02-15T17:06:09.000Z,101553
2019-02-15T17:07:54.000Z,101560
2019-02-15T17:09:09.000Z,101554
2019-02-15T17:11:09.000Z,101565
2019-02-15T17:13:09.000Z,101563
2019-02-15T17:15:09.000Z,101562
2019-02-15T17:17:09.000Z,101564
2019-02-15T17:19:09.000Z,101563
2019-02-15T17:20:09.000Z,101559
2019-02-15T17:22:09.000Z,101559
2019-02-15T17:23:09.000Z,101561
2019-02-15T17:24:09.000Z,101565
2019-02-15T17:26:09.000Z,101560
2019-02-15T17:27:09.000Z,101560
2019-02-15T17:29:09.000Z,101558
2019-02-15T17:31:09.000Z,101552
2019-02-15T17:33:09.000Z,101555
2019-02-15T17:35:09.000Z,101551
2019-02-15T17:36:09.000Z,101551
2019-02-15T17:37:09.000Z,101550
2019-02-15T17:39:09.000Z,101543
2019-02-15T17:41:09.000Z,101544
2019-02-15T17:43:09.000Z,101546
2019-02-15T17:44:09.000Z,101545
2019-02-15T17:46:09.000Z,101534
2019-02-15T17:48:09.000Z,101536
2019-02-15T17:50:09.000Z,101535
2019-02-15T17:52:09.000Z,101526
2019-02-15T17:54:09.000Z,101526
2019-02-15T17:55:09.000Z,101522
2019-02-15T17:57:09.000Z,101521
2019-02-15T17:59:09.000Z,101521
2019-02-15T18:00:09.000Z,101517
2019-02-15T18:01:54.000Z,101520
2019-02-15T18:03:09.000Z,101516
2019-02-15T18:04:09.000Z,101508
2019-02-15T18:05:09.000Z,101513
2019-02-15T18:06:54.000Z,101510
2019-02-15T18:08:09.000Z,101515
2019-02-15T18:10:09.000Z,101512
2019-02-15T18:11:09.000Z,101511
2019-02-15T18:13:09.000Z,101511
2019-02-15T18:14:09.000Z,101513
2019-02-15T18:16:09.000Z,101505
2019-02-15T18:17:54.000Z,101505
2019-02-15T18:19:09.000Z,101511
2019-02-15T18:21:09.000Z,101511
2019-02-15T18:22:09.000Z,101508
2019-02-15T18:23:54.000Z,101506
2019-02-15T18:25:09.000Z,101498
2019-02-15T18:27:09.000Z,101507
2019-02-15T18:29:09.000Z,101510
2019-02-15T18:30:09.000Z,101507
2019-02-15T18:32:09.000Z,101509
2019-02-15T18:34:09.000Z,101498
2019-02-15T18:36:09.000Z,101505
2019-02-15T18:37:09.000Z,101499
2019-02-15T18:38:39.000Z,101497
2019-02-15T18:40:09.000Z,101496
2019-02-15T18:41:54.000Z,101505
2019-02-15T18:42:54.000Z,101498
2019-02-15T18:44:09.000Z,101497
2019-02-15T18:46:09.000Z,101489
2019-02-15T18:48:09.000Z,101491
2019-02-15T18:50:09.000Z,101491
2019-02-15T18:51:09.000Z,101492
2019-02-15T18:53:09.000Z,101486
2019-02-15T18:55:09.000Z,101488
2019-02-15T18:57:09.000Z,101487
2019-02-15T18:58:39.000Z,101489
2019-02-15T19:00:09.000Z,101483
2019-02-15T19:01:54.000Z,101479
2019-02-15T19:03:09.000Z,101483
2019-02-15T19:04:09.000Z,101476
2019-02-15T19:06:09.000Z,101477
2019-02-15T19:07:09.000Z,101474
2019-02-15T19:09:09.000Z,101469
2019-02-15T19:11:09.000Z,101468
2019-02-15T19:13:09.000Z,101468
2019-02-15T19:15:09.000Z,101477
2019-02-15T19:17:09.000Z,101471
2019-02-15T19:18:39.000Z,101472
2019-02-15T19:20:09.000Z,101471
2019-02-15T19:22:09.000Z,101475
2019-02-15T19:23:09.000Z,101470
2019-02-15T19:25:09.000Z,101468
2019-02-15T19:27:09.000Z,101473
2019-02-15T19:28:54.000Z,101471
2019-02-15T19:29:54.000Z,101465
2019-02-15T19:31:09.000Z,101468
2019-02-15T19:32:09.000Z,101464
2019-02-15T19:34:09.000Z,101462
2019-02-15T19:36:09.000Z,101457
2019-02-15T19:38:09.000Z,101457
2019-02-15T19:40:09.000Z,101455
2019-02-15T19:41:09.000Z,101455
2019-02-15T19:43:09.000Z,101455
2019-02-15T19:44:09.000Z,101450
2019-02-15T19:46:09.000Z,101449
2019-02-15T19:48:09.000Z,101449
2019-02-15T19:50:09.000Z,101446
2019-02-15T19:52:09.000Z,101454
2019-02-15T19:53:54.000Z,101456
2019-02-15T19:55:09.000Z,101448
2019-02-15T19:57:09.000Z,101450
2019-02-15T19:58:39.000Z,101451
2019-02-15T20:00:09.000Z,101447
2019-02-15T20:01:09.000Z,101448